createdAt,value
2019-02-27T00:01:17.024Z,2.53
2019-02-27T00:03:44.841Z,3.03
2019-02-27T00:06:12.933Z,4.03
2019-02-27T00:08:41.351Z,2.30
2019-02-27T00:11:12.070Z,2.47
2019-02-27T00:13:37.584Z,2.60
2019-02-27T00:16:04.847Z,4.03
2019-02-27T00:18:32.338Z,3.93
2019-02-27T00:20:59.629Z,2.13
2019-02-27T00:23:26.872Z,3.90
2019-02-27T00:25:54.119Z,4.17
2019-02-27T00:28:23.348Z,2.07
2019-02-27T00:30:50.386Z,2.80
2019-02-27T00:33:17.629Z,2.90
2019-02-27T00:35:45.142Z,3.13
2019-02-27T00:38:12.423Z,4.47
2019-02-27T00:40:39.944Z,8.20
2019-02-27T00:43:07.218Z,2.57
2019-02-27T00:45:34.734Z,3.30
2019-02-27T00:48:01.977Z,3.50
2019-02-27T00:50:29.246Z,4.37
2019-02-27T00:52:56.770Z,4.30
2019-02-27T00:55:24.278Z,5.83
2019-02-27T00:57:53.909Z,3.63
2019-02-27T01:00:20.511Z,4.80
2019-02-27T01:02:47.782Z,3.97
2019-02-27T01:05:15.034Z,4.70
2019-02-27T01:07:42.310Z,4.90
2019-02-27T01:10:12.273Z,5.00
2019-02-27T01:12:39.579Z,4.27
2019-02-27T01:15:10.688Z,4.77
2019-02-27T01:17:37.269Z,3.87
2019-02-27T01:20:11.233Z,4.17
2019-02-27T01:22:37.898Z,6.70
2019-02-27T01:25:05.339Z,3.20
2019-02-27T01:27:32.659Z,4.00
2019-02-27T01:30:00.259Z,4.27
2019-02-27T01:32:28.847Z,4.60
2019-02-27T01:34:56.756Z,4.73
2019-02-27T01:37:24.022Z,4.20
2019-02-27T01:39:51.295Z,4.53
2019-02-27T01:42:18.564Z,4.70
2019-02-27T01:44:46.672Z,3.80
2019-02-27T01:47:14.463Z,6.80
2019-02-27T01:49:41.961Z,4.90
2019-02-27T01:52:09.230Z,4.10
2019-02-27T01:54:36.719Z,4.30
2019-02-27T01:57:04.325Z,5.13
2019-02-27T01:59:31.566Z,6.13
2019-02-27T02:02:01.111Z,13.07
2019-02-27T02:04:27.881Z,8.03
2019-02-27T02:06:55.418Z,6.80
2019-02-27T02:09:36.035Z,5.00
2019-02-27T02:12:10.614Z,4.63
2019-02-27T02:14:39.673Z,3.83
2019-02-27T02:17:24.972Z,5.00
2019-02-27T02:19:59.863Z,4.90
2019-02-27T02:22:28.646Z,7.43
2019-02-27T02:25:00.094Z,4.73
2019-02-27T02:27:34.783Z,7.63
2019-02-27T02:30:06.303Z,5.93
2019-02-27T02:32:52.313Z,9.00
2019-02-27T02:35:40.268Z,6.67
2019-02-27T02:38:17.776Z,5.40
2019-02-27T02:40:49.018Z,7.30
2019-02-27T02:43:26.690Z,5.50
2019-02-27T02:46:10.342Z,9.60
2019-02-27T02:48:44.823Z,6.10
2019-02-27T02:51:28.851Z,6.00
2019-02-27T02:54:00.675Z,5.00
2019-02-27T02:56:44.076Z,5.17
2019-02-27T02:59:24.384Z,8.20
2019-02-27T03:01:50.223Z,5.30
2019-02-27T03:04:28.120Z,6.13
2019-02-27T03:06:56.925Z,5.27
2019-02-27T03:09:31.853Z,6.30
2019-02-27T03:12:00.871Z,7.77
2019-02-27T03:14:29.680Z,5.77
2019-02-27T03:16:58.460Z,3.90
2019-02-27T03:19:41.796Z,6.83
2019-02-27T03:22:24.605Z,5.43
2019-02-27T03:25:04.418Z,4.80
2019-02-27T03:27:33.275Z,5.00
2019-02-27T03:30:02.071Z,4.60
2019-02-27T03:32:40.898Z,4.47
2019-02-27T03:35:04.111Z,4.83
2019-02-27T03:37:32.984Z,5.60
2019-02-27T03:40:01.790Z,7.03
2019-02-27T03:42:30.872Z,5.60
2019-02-27T03:45:01.106Z,6.70
2019-02-27T03:47:29.915Z,8.33
2019-02-27T03:50:07.539Z,7.47
2019-02-27T03:52:52.583Z,7.57
2019-02-27T03:55:21.389Z,6.40
2019-02-27T03:57:56.183Z,5.10
2019-02-27T04:00:25.262Z,7.40
2019-02-27T04:02:59.964Z,5.93
2019-02-27T04:05:40.969Z,4.47
2019-02-27T04:08:14.157Z,6.40
2019-02-27T04:10:41.469Z,4.93
2019-02-27T04:13:08.839Z,6.47
2019-02-27T04:15:36.164Z,7.87
2019-02-27T04:18:02.939Z,4.93
2019-02-27T04:20:30.457Z,4.93
2019-02-27T04:22:57.704Z,3.60
2019-02-27T04:25:24.984Z,5.37
2019-02-27T04:27:55.329Z,4.10
2019-02-27T04:30:21.211Z,3.87
2019-02-27T04:32:48.974Z,4.07
2019-02-27T04:35:16.330Z,3.50
2019-02-27T04:37:43.609Z,2.70
2019-02-27T04:40:11.262Z,5.27
2019-02-27T04:42:38.976Z,3.73
2019-02-27T04:45:09.865Z,6.60
2019-02-27T04:47:36.752Z,6.10
2019-02-27T04:50:04.893Z,5.50
2019-02-27T04:52:32.174Z,3.17
2019-02-27T04:54:59.667Z,4.40
2019-02-27T04:57:27.206Z,3.30
2019-02-27T04:59:54.628Z,4.40
2019-02-27T05:02:21.922Z,3.70
2019-02-27T05:04:49.443Z,3.87
2019-02-27T05:07:20.076Z,4.10
2019-02-27T05:09:45.811Z,4.00
2019-02-27T05:12:13.342Z,4.13
2019-02-27T05:14:40.614Z,2.93
2019-02-27T05:17:07.864Z,3.10
2019-02-27T05:19:37.205Z,3.13
2019-02-27T05:22:04.126Z,5.33
2019-02-27T05:24:31.369Z,5.20
2019-02-27T05:27:00.878Z,4.83
2019-02-27T05:29:27.598Z,4.53
2019-02-27T05:31:54.873Z,3.90
2019-02-27T05:34:22.406Z,5.63
2019-02-27T05:36:49.922Z,3.90
2019-02-27T05:39:17.444Z,3.80
2019-02-27T05:41:45.472Z,6.80
2019-02-27T05:44:12.999Z,5.00
2019-02-27T05:46:40.239Z,9.10
2019-02-27T05:49:07.590Z,7.40
2019-02-27T05:51:34.833Z,5.20
2019-02-27T05:54:02.354Z,5.20
2019-02-27T05:56:29.610Z,10.40
2019-02-27T05:58:57.151Z,8.10
2019-02-27T06:01:24.383Z,6.70
2019-02-27T06:03:52.302Z,6.80
2019-02-27T06:06:20.190Z,6.67
2019-02-27T06:08:48.691Z,10.33
2019-02-27T06:11:16.290Z,9.43
2019-02-27T06:13:45.038Z,7.30
2019-02-27T06:16:12.532Z,5.23
2019-02-27T06:18:39.777Z,7.40
2019-02-27T06:21:07.040Z,6.83
2019-02-27T06:23:35.357Z,13.20
2019-02-27T06:26:03.550Z,7.43
2019-02-27T06:28:30.797Z,7.43
2019-02-27T06:30:58.326Z,6.53
2019-02-27T06:33:25.566Z,8.23
2019-02-27T06:35:52.809Z,13.03
2019-02-27T06:38:20.347Z,7.83
2019-02-27T06:40:47.693Z,16.90
2019-02-27T06:43:15.068Z,11.07
2019-02-27T06:45:45.531Z,7.87
2019-02-27T06:48:11.331Z,9.23
2019-02-27T06:50:38.571Z,7.47
2019-02-27T06:53:05.853Z,10.13
2019-02-27T06:55:33.887Z,10.27
2019-02-27T06:58:01.226Z,7.50
2019-02-27T07:00:28.503Z,10.80
2019-02-27T07:02:56.229Z,11.20
2019-02-27T07:05:23.606Z,9.27
2019-02-27T07:07:50.849Z,11.23
2019-02-27T07:10:19.984Z,8.80
2019-02-27T07:12:47.477Z,11.47
2019-02-27T07:15:18.268Z,11.80
2019-02-27T07:17:45.510Z,7.53
2019-02-27T07:20:14.102Z,7.10
2019-02-27T07:22:45.497Z,7.20
2019-02-27T07:25:12.306Z,10.73
2019-02-27T07:27:39.704Z,7.57
2019-02-27T07:30:08.661Z,14.80
2019-02-27T07:32:35.916Z,11.73
2019-02-27T07:35:03.353Z,8.43
2019-02-27T07:37:30.598Z,7.90
2019-02-27T07:39:57.877Z,11.50
2019-02-27T07:42:25.118Z,8.10
2019-02-27T07:44:52.399Z,9.37
2019-02-27T07:47:19.637Z,12.30
2019-02-27T07:49:48.270Z,6.90
2019-02-27T07:52:15.887Z,13.10
2019-02-27T07:54:43.147Z,8.00
2019-02-27T07:57:10.425Z,8.10
2019-02-27T07:59:38.237Z,8.90
2019-02-27T08:02:05.985Z,9.87
2019-02-27T08:04:33.338Z,7.10
2019-02-27T08:07:00.642Z,7.70
2019-02-27T08:09:30.251Z,7.53
2019-02-27T08:11:56.842Z,6.40
2019-02-27T08:14:24.114Z,7.43
2019-02-27T08:16:51.430Z,5.40
2019-02-27T08:19:18.693Z,6.00
2019-02-27T08:21:45.962Z,5.93
2019-02-27T08:24:14.364Z,7.57
2019-02-27T08:26:41.698Z,6.80
2019-02-27T08:29:08.974Z,5.73
2019-02-27T08:31:36.484Z,6.60
2019-02-27T08:34:03.753Z,6.63
2019-02-27T08:36:30.994Z,6.37
2019-02-27T08:38:58.261Z,6.83
2019-02-27T08:41:25.578Z,7.03
2019-02-27T08:43:52.925Z,6.30
2019-02-27T08:46:20.172Z,7.73
2019-02-27T08:48:49.925Z,8.30
2019-02-27T08:51:16.665Z,6.27
2019-02-27T08:53:43.904Z,7.47
2019-02-27T08:56:12.449Z,8.10
2019-02-27T08:58:40.231Z,8.20
2019-02-27T09:01:08.678Z,6.77
2019-02-27T09:03:36.355Z,6.60
2019-02-27T09:06:04.591Z,9.63
2019-02-27T09:08:31.829Z,8.93
2019-02-27T09:10:59.107Z,7.30
2019-02-27T09:13:26.379Z,8.13
2019-02-27T09:15:53.856Z,11.00
2019-02-27T09:18:22.912Z,14.47
2019-02-27T09:20:53.090Z,11.10
2019-02-27T09:23:19.300Z,12.00
2019-02-27T09:25:46.590Z,10.17
2019-02-27T09:28:13.841Z,13.70
2019-02-27T09:30:41.082Z,10.77
2019-02-27T09:33:08.533Z,10.70
2019-02-27T09:35:38.604Z,15.23
2019-02-27T09:38:05.106Z,11.43
2019-02-27T09:40:32.349Z,13.63
2019-02-27T09:42:59.625Z,11.27
2019-02-27T09:45:27.542Z,11.27
2019-02-27T09:47:59.589Z,16.53
2019-02-27T09:50:33.574Z,10.23
2019-02-27T09:53:03.278Z,12.17
2019-02-27T09:55:30.213Z,12.27
2019-02-27T09:57:57.482Z,12.10
2019-02-27T10:00:28.705Z,13.57
2019-02-27T10:02:56.039Z,12.37
2019-02-27T10:05:24.865Z,10.57
2019-02-27T10:07:52.414Z,13.63
2019-02-27T10:10:19.666Z,13.63
2019-02-27T10:12:46.934Z,13.03
2019-02-27T10:15:14.215Z,11.40
2019-02-27T10:17:43.664Z,11.63
2019-02-27T10:20:10.424Z,9.80
2019-02-27T10:22:37.963Z,11.00
2019-02-27T10:25:08.617Z,9.97
2019-02-27T10:27:34.775Z,13.40
2019-02-27T10:30:11.169Z,10.50
2019-02-27T10:32:31.692Z,10.07
2019-02-27T10:34:58.953Z,11.17
2019-02-27T10:37:26.242Z,13.13
2019-02-27T10:39:53.574Z,9.83
2019-02-27T10:42:20.938Z,9.37
2019-02-27T10:44:48.181Z,7.93
2019-02-27T10:47:15.422Z,9.80
2019-02-27T10:49:42.700Z,7.47
2019-02-27T10:52:09.967Z,10.40
2019-02-27T10:54:39.346Z,7.83
2019-02-27T10:57:06.535Z,8.40
2019-02-27T10:59:33.805Z,9.80
2019-02-27T11:02:01.055Z,9.10
2019-02-27T11:04:28.621Z,7.67
2019-02-27T11:06:55.925Z,8.20
2019-02-27T11:09:24.067Z,6.57
2019-02-27T11:11:53.834Z,6.90
2019-02-27T11:14:20.551Z,8.30
2019-02-27T11:16:47.819Z,6.40
2019-02-27T11:19:16.613Z,9.67
2019-02-27T11:21:44.255Z,9.23
2019-02-27T11:24:11.502Z,7.80
2019-02-27T11:26:38.781Z,7.70
2019-02-27T11:29:06.030Z,7.83
2019-02-27T11:31:33.270Z,9.20
2019-02-27T11:34:01.177Z,7.70
2019-02-27T11:36:28.462Z,7.33
2019-02-27T11:38:56.697Z,7.80
2019-02-27T11:41:24.781Z,7.73
2019-02-27T11:43:52.741Z,6.87
2019-02-27T11:46:20.074Z,6.37
2019-02-27T11:48:47.417Z,5.10
2019-02-27T11:51:14.746Z,5.10
2019-02-27T11:53:43.806Z,5.20
2019-02-27T11:56:11.073Z,10.13
2019-02-27T11:58:39.084Z,8.00
2019-02-27T12:01:06.749Z,9.37
2019-02-27T12:03:34.073Z,10.93
2019-02-27T12:06:01.322Z,13.10
2019-02-27T12:08:30.208Z,11.53
2019-02-27T12:10:57.580Z,10.93
2019-02-27T12:13:24.830Z,10.03
2019-02-27T12:15:52.077Z,8.30
2019-02-27T12:18:19.342Z,5.60
2019-02-27T12:20:46.857Z,10.13
2019-02-27T12:23:14.230Z,5.60
2019-02-27T12:25:41.475Z,13.97
2019-02-27T12:28:09.080Z,9.03
2019-02-27T12:30:37.492Z,6.73
2019-02-27T12:33:05.445Z,5.13
2019-02-27T12:35:33.709Z,5.80
2019-02-27T12:38:01.046Z,9.67
2019-02-27T12:40:28.298Z,10.40
2019-02-27T12:42:55.564Z,9.67
2019-02-27T12:45:25.790Z,10.03
2019-02-27T12:47:52.710Z,7.70
2019-02-27T12:50:20.750Z,7.37
2019-02-27T12:52:48.246Z,8.47
2019-02-27T12:55:16.553Z,6.63
2019-02-27T12:57:44.106Z,8.17
2019-02-27T13:00:12.890Z,9.63
2019-02-27T13:02:40.174Z,10.83
2019-02-27T13:05:08.958Z,8.40
2019-02-27T13:07:36.501Z,10.90
2019-02-27T13:10:05.809Z,9.40
2019-02-27T13:12:33.310Z,10.10
2019-02-27T13:15:00.549Z,9.10
2019-02-27T13:17:27.895Z,8.40
2019-02-27T13:19:55.137Z,7.60
2019-02-27T13:22:22.458Z,9.63
2019-02-27T13:24:50.274Z,9.20
2019-02-27T13:27:18.317Z,9.63
2019-02-27T13:29:45.571Z,8.87
2019-02-27T13:32:12.811Z,8.50
2019-02-27T13:34:40.114Z,7.63
2019-02-27T13:37:10.247Z,7.97
2019-02-27T13:39:36.680Z,12.50
2019-02-27T13:42:04.021Z,7.70
2019-02-27T13:44:34.444Z,10.23
2019-02-27T13:47:00.259Z,6.87
2019-02-27T13:49:27.581Z,12.00
2019-02-27T13:51:55.118Z,10.20
2019-02-27T13:54:22.394Z,8.43
2019-02-27T13:56:49.647Z,9.10
2019-02-27T13:59:16.921Z,10.97
2019-02-27T14:01:44.274Z,10.10
2019-02-27T14:04:11.546Z,8.63
2019-02-27T14:06:42.960Z,11.27
2019-02-27T14:09:08.674Z,8.60
2019-02-27T14:11:35.952Z,8.07
2019-02-27T14:14:03.292Z,11.57
2019-02-27T14:16:34.517Z,8.27
2019-02-27T14:18:59.528Z,8.57
2019-02-27T14:21:27.029Z,8.17
2019-02-27T14:23:54.399Z,8.50
2019-02-27T14:26:21.643Z,8.53
2019-02-27T14:28:48.886Z,9.13
2019-02-27T14:31:16.157Z,9.20
2019-02-27T14:33:43.434Z,15.00
2019-02-27T14:36:10.702Z,9.43
2019-02-27T14:38:38.219Z,12.73
2019-02-27T14:41:05.504Z,9.97
2019-02-27T14:43:33.006Z,12.60
2019-02-27T14:46:00.252Z,9.80
2019-02-27T14:48:28.635Z,8.67
2019-02-27T14:50:56.143Z,11.37
2019-02-27T14:53:23.411Z,9.80
2019-02-27T14:55:50.686Z,8.63
2019-02-27T14:58:17.950Z,9.70
2019-02-27T15:00:45.233Z,10.70
2019-02-27T15:03:12.470Z,8.80
2019-02-27T15:05:42.885Z,8.70
2019-02-27T15:08:08.702Z,7.73
2019-02-27T15:10:40.254Z,10.97
2019-02-27T15:13:05.202Z,10.20
2019-02-27T15:15:32.724Z,12.07
2019-02-27T15:18:00.211Z,10.90
2019-02-27T15:20:28.328Z,10.83
2019-02-27T15:22:55.640Z,11.80
2019-02-27T15:25:23.190Z,9.17
2019-02-27T15:27:50.574Z,10.30
2019-02-27T15:30:21.481Z,9.60
2019-02-27T15:32:48.806Z,11.40
2019-02-27T15:35:21.046Z,11.07
2019-02-27T15:37:45.050Z,12.53
2019-02-27T15:40:13.832Z,9.50
2019-02-27T15:42:42.716Z,10.00
2019-02-27T15:45:11.956Z,12.07
2019-02-27T15:47:39.197Z,12.00
2019-02-27T15:50:13.576Z,13.73
2019-02-27T15:52:41.454Z,11.63
2019-02-27T15:55:09.398Z,11.10
2019-02-27T15:57:36.927Z,15.17
2019-02-27T16:00:05.990Z,13.10
2019-02-27T16:02:34.059Z,12.23
2019-02-27T16:05:02.416Z,11.90
2019-02-27T16:07:29.662Z,12.30
2019-02-27T16:09:56.946Z,15.63
2019-02-27T16:12:25.952Z,15.30
2019-02-27T16:14:53.442Z,12.20
2019-02-27T16:17:20.693Z,10.70
2019-02-27T16:19:47.941Z,9.37
2019-02-27T16:22:15.484Z,12.13
2019-02-27T16:24:43.948Z,10.17
2019-02-27T16:27:11.526Z,11.93
2019-02-27T16:29:38.793Z,13.47
2019-02-27T16:32:06.076Z,13.27
2019-02-27T16:34:34.150Z,14.43
2019-02-27T16:37:01.589Z,14.47
2019-02-27T16:39:29.519Z,18.50
2019-02-27T16:41:56.796Z,13.90
2019-02-27T16:44:24.075Z,19.37
2019-02-27T16:46:51.398Z,17.30
2019-02-27T16:49:18.679Z,14.53
2019-02-27T16:51:45.927Z,17.13
2019-02-27T16:54:13.193Z,16.30
2019-02-27T16:56:46.535Z,17.07
2019-02-27T16:59:11.826Z,16.70
2019-02-27T17:01:38.440Z,26.40
2019-02-27T17:04:06.962Z,16.83
2019-02-27T17:06:34.595Z,23.43
2019-02-27T17:09:01.883Z,25.43
2019-02-27T17:11:29.473Z,17.40
2019-02-27T17:13:58.212Z,20.87
2019-02-27T17:16:25.459Z,19.20
2019-02-27T17:18:52.741Z,22.10
2019-02-27T17:21:22.600Z,19.40
2019-02-27T17:23:49.000Z,21.30
2019-02-27T17:26:16.528Z,22.90
2019-02-27T17:28:43.812Z,25.70
2019-02-27T17:31:12.232Z,21.70
2019-02-27T17:33:40.082Z,21.17
2019-02-27T17:36:07.412Z,20.50
2019-02-27T17:38:34.721Z,21.80
2019-02-27T17:41:02.346Z,23.33
2019-02-27T17:43:29.930Z,16.20
2019-02-27T17:45:57.427Z,20.93
2019-02-27T17:48:24.790Z,16.40
2019-02-27T17:50:52.256Z,16.50
2019-02-27T17:53:20.446Z,34.23
2019-02-27T17:55:48.913Z,18.40
2019-02-27T17:58:16.170Z,17.53
2019-02-27T18:00:50.025Z,17.10
2019-02-27T18:03:14.266Z,17.43
2019-02-27T18:05:42.179Z,21.63
2019-02-27T18:08:09.551Z,19.57
2019-02-27T18:10:37.552Z,19.30
2019-02-27T18:13:05.694Z,20.83
2019-02-27T18:15:33.014Z,16.90
2019-02-27T18:18:00.294Z,22.97
2019-02-27T18:20:27.542Z,16.90
2019-02-27T18:22:55.192Z,24.20
2019-02-27T18:25:22.534Z,16.63
2019-02-27T18:27:50.079Z,18.97
2019-02-27T18:30:19.761Z,16.10
2019-02-27T18:32:47.090Z,18.50
2019-02-27T18:35:14.841Z,21.30
2019-02-27T18:37:42.402Z,21.20
2019-02-27T18:40:11.144Z,18.23
2019-02-27T18:42:39.049Z,23.00
2019-02-27T18:45:07.891Z,18.17
2019-02-27T18:47:35.802Z,24.40
2019-02-27T18:50:03.255Z,13.87
2019-02-27T18:52:30.764Z,18.47
2019-02-27T18:54:58.039Z,19.70
2019-02-27T18:57:25.439Z,13.43
2019-02-27T18:59:52.789Z,21.07
2019-02-27T19:02:20.757Z,15.23
2019-02-27T19:04:48.342Z,19.87
2019-02-27T19:07:17.305Z,19.57
2019-02-27T19:09:46.955Z,15.53
2019-02-27T19:12:13.936Z,18.60
2019-02-27T19:14:41.215Z,15.23
2019-02-27T19:17:08.473Z,17.90
2019-02-27T19:19:35.713Z,13.07
2019-02-27T19:22:04.355Z,13.57
2019-02-27T19:24:32.551Z,22.27
2019-02-27T19:27:01.024Z,14.60
2019-02-27T19:29:31.893Z,18.47
2019-02-27T19:31:58.746Z,19.87
2019-02-27T19:34:26.972Z,17.37
2019-02-27T19:36:54.597Z,14.60
2019-02-27T19:39:22.538Z,19.90
2019-02-27T19:41:50.232Z,15.60
2019-02-27T19:44:17.734Z,16.20
2019-02-27T19:46:47.459Z,15.40
2019-02-27T19:49:14.135Z,21.80
2019-02-27T19:51:45.086Z,14.17
2019-02-27T19:54:14.914Z,17.80
2019-02-27T19:56:41.578Z,13.80
2019-02-27T19:59:09.131Z,14.60
2019-02-27T20:01:36.378Z,14.77
2019-02-27T20:04:08.975Z,15.37
2019-02-27T20:06:32.621Z,14.83
2019-02-27T20:08:59.970Z,16.70
2019-02-27T20:11:27.399Z,14.53
2019-02-27T20:13:54.710Z,12.73
2019-02-27T20:16:21.992Z,17.00
2019-02-27T20:18:54.770Z,12.93
2019-02-27T20:21:18.325Z,13.73
2019-02-27T20:23:45.602Z,15.50
2019-02-27T20:26:14.207Z,10.63
2019-02-27T20:28:41.949Z,11.67
2019-02-27T20:31:09.233Z,10.97
2019-02-27T20:33:37.207Z,10.73
2019-02-27T20:36:05.405Z,10.77
2019-02-27T20:38:33.164Z,14.07
2019-02-27T20:41:00.425Z,9.07
2019-02-27T20:43:29.475Z,13.77
2019-02-27T20:45:56.694Z,10.30
2019-02-27T20:48:24.024Z,8.27
2019-02-27T20:50:52.832Z,13.33
2019-02-27T20:53:20.969Z,10.97
2019-02-27T20:55:49.050Z,8.90
2019-02-27T20:58:17.398Z,11.83
2019-02-27T21:00:44.794Z,11.90
2019-02-27T21:03:12.071Z,9.33
2019-02-27T21:05:40.958Z,13.03
2019-02-27T21:08:08.482Z,8.27
2019-02-27T21:10:35.750Z,6.77
2019-02-27T21:13:03.012Z,8.57
2019-02-27T21:15:32.477Z,10.43
2019-02-27T21:17:59.253Z,10.33
2019-02-27T21:20:26.579Z,6.70
2019-02-27T21:22:53.854Z,7.30
2019-02-27T21:25:21.099Z,8.67
2019-02-27T21:27:48.463Z,8.90
2019-02-27T21:30:18.799Z,10.60
2019-02-27T21:32:46.449Z,9.20
2019-02-27T21:35:13.714Z,8.90
2019-02-27T21:37:44.602Z,7.60
2019-02-27T21:40:11.576Z,6.90
2019-02-27T21:42:38.884Z,7.87
2019-02-27T21:45:12.845Z,7.43
2019-02-27T21:47:40.259Z,6.57
2019-02-27T21:50:08.974Z,6.70
2019-02-27T21:52:36.249Z,9.43
2019-02-27T21:55:03.557Z,7.37
2019-02-27T21:57:30.829Z,5.97
2019-02-27T21:59:58.111Z,7.13
2019-02-27T22:02:27.267Z,8.67
2019-02-27T22:04:54.345Z,6.37
2019-02-27T22:07:21.674Z,6.50
2019-02-27T22:09:49.034Z,9.17
2019-02-27T22:12:16.287Z,7.77
2019-02-27T22:14:43.571Z,6.00
2019-02-27T22:17:10.811Z,3.90
2019-02-27T22:19:38.134Z,13.10
2019-02-27T22:22:08.030Z,10.53
2019-02-27T22:24:34.386Z,6.70
2019-02-27T22:27:01.637Z,6.23
2019-02-27T22:29:28.980Z,5.73
2019-02-27T22:31:56.218Z,4.80
2019-02-27T22:34:23.494Z,2.63
2019-02-27T22:36:50.742Z,2.93
2019-02-27T22:39:17.999Z,5.23
2019-02-27T22:41:45.585Z,3.40
2019-02-27T22:44:13.899Z,3.67
2019-02-27T22:46:41.279Z,5.60
2019-02-27T22:49:08.622Z,6.17
2019-02-27T22:51:35.864Z,4.87
2019-02-27T22:54:03.209Z,4.67
2019-02-27T22:56:30.707Z,6.03
2019-02-27T22:58:59.457Z,6.47
2019-02-27T23:01:27.526Z,8.47
2019-02-27T23:03:57.910Z,5.87
2019-02-27T23:06:24.518Z,7.60
2019-02-27T23:08:54.392Z,6.17
2019-02-27T23:11:21.155Z,10.17
2019-02-27T23:13:48.558Z,7.37
2019-02-27T23:16:16.002Z,6.97
2019-02-27T23:18:43.309Z,8.57
2019-02-27T23:21:10.878Z,11.57
2019-02-27T23:23:38.150Z,7.40
2019-02-27T23:26:05.807Z,6.53
2019-02-27T23:28:34.850Z,10.90
2019-02-27T23:31:02.397Z,8.27
2019-02-27T23:33:29.674Z,10.20
2019-02-27T23:35:57.192Z,9.30
2019-02-27T23:38:24.468Z,11.13
2019-02-27T23:40:52.038Z,8.10
2019-02-27T23:43:19.809Z,7.50
2019-02-27T23:45:47.129Z,8.57
2019-02-27T23:48:14.373Z,9.30
2019-02-27T23:50:42.649Z,7.33
2019-02-27T23:53:10.623Z,7.53
2019-02-27T23:55:37.894Z,7.60
2019-02-27T23:58:05.412Z,8.43
